Time;durP1;ratioP1;P1;durP2;ratioP2;P2;SDS_P1;SDS_P2;PMS_P1;PMS_P2;Temp;Humidity;BMP_temperature;BMP_pressure;BME280_temperature;BME280_humidity;BME280_pressure;Samples;Min_cycle;Max_cycle;Signal;HPM_P1;HPM_P2
2022/01/19 00:02:13;;;;;;;8.57;3.00;;;;;;;-1.74;87.86;95745.22;5074246;28;20247;-62
2022/01/19 00:04:40;;;;;;;9.47;2.60;;;;;;;-1.79;87.11;95754.47;5092431;28;20217;-61
2022/01/19 00:07:05;;;;;;;7.50;3.60;;;;;;;-1.88;87.67;95754.66;5091570;28;20174;-64
2022/01/19 00:09:31;;;;;;;6.13;2.90;;;;;;;-1.90;87.85;95753.84;5091956;28;20266;-62
2022/01/19 00:11:56;;;;;;;8.47;3.53;;;;;;;-1.79;87.87;95769.44;5074060;28;20551;-59
2022/01/19 00:14:22;;;;;;;6.60;2.60;;;;;;;-1.76;86.59;95788.50;5092153;28;20688;-63
2022/01/19 00:16:47;;;;;;;5.17;2.63;;;;;;;-1.86;87.44;95784.53;5092122;28;20667;-65
2022/01/19 00:19:13;;;;;;;5.07;2.73;;;;;;;-1.80;87.17;95785.22;5092256;28;20197;-63
2022/01/19 00:21:38;;;;;;;5.83;2.47;;;;;;;-1.78;86.47;95788.50;5092079;28;20251;-62
2022/01/19 00:24:04;;;;;;;9.07;3.10;;;;;;;-1.74;86.56;95790.09;5092084;28;20217;-62
2022/01/19 00:26:29;;;;;;;4.60;2.60;;;;;;;-1.72;86.87;95783.41;5092056;28;20200;-63
2022/01/19 00:28:56;;;;;;;3.90;2.30;;;;;;;-1.75;86.00;95788.47;5092903;28;20189;-63
2022/01/19 00:31:21;;;;;;;3.43;2.33;;;;;;;-1.70;85.85;95808.31;5091880;28;20192;-64
2022/01/19 00:33:46;;;;;;;5.33;2.33;;;;;;;-1.70;86.27;95800.84;5092376;28;20626;-62
2022/01/19 00:36:12;;;;;;;5.63;2.67;;;;;;;-1.81;86.39;95786.09;5091704;28;20214;-62
2022/01/19 00:38:37;;;;;;;9.33;2.37;;;;;;;-1.64;85.84;95822.31;5092249;28;20672;-63
2022/01/19 00:41:03;;;;;;;6.97;2.90;;;;;;;-1.88;85.98;95809.47;5073720;28;20300;-64
2022/01/19 00:43:29;;;;;;;4.60;2.60;;;;;;;-1.88;86.47;95808.66;5091743;28;20188;-61
2022/01/19 00:45:54;;;;;;;7.03;2.40;;;;;;;-1.98;86.85;95803.00;5091660;28;20198;-63
2022/01/19 00:48:20;;;;;;;6.67;2.97;;;;;;;-1.91;86.90;95804.53;5092355;28;20281;-59
2022/01/19 00:50:45;;;;;;;6.00;2.83;;;;;;;-1.84;86.80;95801.06;5081139;22;20706;-60
2022/01/19 00:53:11;;;;;;;6.30;2.27;;;;;;;-1.84;86.70;95808.53;5051783;28;20183;-60
2022/01/19 00:55:36;;;;;;;8.47;2.93;;;;;;;-1.80;86.49;95817.59;5051982;28;20591;-64
2022/01/19 00:58:02;;;;;;;8.47;3.10;;;;;;;-1.77;86.04;95827.53;5051457;28;20562;-63
2022/01/19 01:00:28;;;;;;;5.53;3.00;;;;;;;-1.94;87.57;95809.56;5051747;28;20681;-64
2022/01/19 01:02:54;;;;;;;5.33;2.70;;;;;;;-1.85;87.33;95826.84;5051718;28;20184;-64
2022/01/19 01:05:21;;;;;;;5.40;2.53;;;;;;;-1.88;87.15;95834.38;5051700;28;20201;-60
2022/01/19 01:07:47;;;;;;;7.40;2.67;;;;;;;-1.99;88.33;95816.31;5033573;28;20676;-62
2022/01/19 01:10:14;;;;;;;7.60;2.87;;;;;;;-1.94;88.43;95818.72;5051607;28;20256;-62
2022/01/19 01:12:52;;;;;;;3.20;2.23;;;;;;;-1.90;88.22;95823.59;5051263;28;20223;-63
2022/01/19 01:15:48;;;;;;;4.10;2.20;;;;;;;-1.98;88.30;95817.94;5051357;28;20206;-63
2022/01/19 01:18:19;;;;;;;9.77;3.30;;;;;;;-1.97;88.63;95808.81;5053645;28;20203;-62
2022/01/19 01:20:48;;;;;;;5.17;2.97;;;;;;;-1.95;88.23;95812.91;5055190;28;20681;-65
2022/01/19 01:23:14;;;;;;;6.57;2.70;;;;;;;-2.08;88.87;95794.06;5055428;28;20513;-59
2022/01/19 01:25:39;;;;;;;11.17;3.50;;;;;;;-2.06;89.12;95804.00;5055607;28;20261;-59
2022/01/19 01:28:06;;;;;;;6.63;2.90;;;;;;;-2.06;89.33;95799.03;5037250;28;20652;-61
2022/01/19 01:30:34;;;;;;;8.87;2.90;;;;;;;-2.03;89.21;95791.47;5055270;28;20221;-59
2022/01/19 01:32:59;;;;;;;8.53;3.00;;;;;;;-2.06;89.26;95779.91;5037732;28;20190;-60
2022/01/19 01:35:24;;;;;;;7.90;3.43;;;;;;;-2.10;89.61;95780.81;5055176;28;20208;-63
2022/01/19 01:37:50;;;;;;;7.40;3.37;;;;;;;-2.09;89.53;95784.13;5055126;28;20266;-64
2022/01/19 01:40:16;;;;;;;7.33;2.90;;;;;;;-2.11;89.57;95784.16;5055135;28;20221;-59
2022/01/19 01:42:42;;;;;;;8.00;3.10;;;;;;;-2.09;89.48;95777.47;5054832;28;20192;-63
2022/01/19 01:45:14;;;;;;;7.93;4.07;;;;;;;-2.20;89.89;95781.00;5055105;28;20207;-60
2022/01/19 01:47:47;;;;;;;7.90;3.97;;;;;;;-2.14;89.71;95775.94;5055054;28;20161;-59
2022/01/19 01:55:22;;;;;;;11.53;3.83;;;;;;;-2.17;89.93;95769.31;5102108;22;20216;-63
2022/01/19 01:57:48;;;;;;;4.57;2.63;;;;;;;-2.24;89.80;95755.31;5094691;28;20194;-61
2022/01/19 02:00:18;;;;;;;8.10;3.37;;;;;;;-2.27;90.14;95760.38;5076308;28;20222;-61
2022/01/19 02:02:46;;;;;;;7.40;2.77;;;;;;;-2.36;90.03;95733.13;5094553;28;20169;-61
2022/01/19 02:05:13;;;;;;;8.07;3.37;;;;;;;-2.22;90.43;95752.84;5094620;28;20202;-61
2022/01/19 02:10:15;;;;;;;9.27;3.00;;;;;;;-2.20;89.88;95746.97;5095004;28;20204;-63
2022/01/19 02:23:43;;;;;;;4.00;2.60;;;;;;;-2.21;89.08;95732.06;5094267;28;20190;-59
2022/01/19 02:26:15;;;;;;;4.40;3.10;;;;;;;-2.17;88.41;95746.91;5094258;28;20712;-62
2022/01/19 02:41:45;;;;;;;7.87;2.50;;;;;;;-2.34;88.85;95720.69;5074004;28;20203;-61
2022/01/19 02:44:15;;;;;;;6.00;3.23;;;;;;;-2.41;88.99;95711.69;5073778;28;20176;-63
2022/01/19 02:49:19;;;;;;;7.47;3.03;;;;;;;-2.28;88.70;95738.81;5073630;28;20174;-59
2022/01/19 02:51:50;;;;;;;4.30;2.83;;;;;;;-2.34;88.13;95733.94;5099882;22;20221;-64
2022/01/19 02:54:17;;;;;;;5.10;2.47;;;;;;;-2.29;87.85;95747.13;5093889;28;20203;-61
2022/01/19 02:56:48;;;;;;;5.27;2.93;;;;;;;-2.19;86.80;95753.59;5093787;28;20569;-59
2022/01/19 02:59:26;;;;;;;4.53;2.67;;;;;;;-2.25;87.04;95758.69;5093612;28;20325;-59
2022/01/19 03:10:05;;;;;;;4.70;2.60;;;;;;;-2.23;86.94;95754.50;5093932;28;20240;-61
2022/01/19 03:12:30;;;;;;;4.80;2.30;;;;;;;-2.36;87.59;95738.13;5075106;28;20271;-58
2022/01/19 03:14:56;;;;;;;6.47;2.60;;;;;;;-2.30;87.31;95733.03;5093240;28;20286;-63
2022/01/19 03:17:22;;;;;;;5.53;2.90;;;;;;;-2.32;87.22;95734.72;5093101;28;20205;-61
2022/01/19 03:19:48;;;;;;;11.07;2.73;;;;;;;-2.31;87.78;95733.06;5093244;28;20218;-62
2022/01/19 03:22:13;;;;;;;3.70;2.70;;;;;;;-2.29;87.05;95739.66;5074848;28;20180;-59
2022/01/19 03:24:47;;;;;;;5.73;3.13;;;;;;;-2.29;87.67;95746.31;5093178;28;20697;-63
2022/01/19 03:27:13;;;;;;;8.30;3.93;;;;;;;-2.27;87.15;95762.88;5092884;28;20187;-64
2022/01/19 03:29:38;;;;;;;4.33;2.80;;;;;;;-2.17;86.81;95761.84;5093342;28;20719;-61
2022/01/19 03:32:04;;;;;;;7.77;2.73;;;;;;;-2.30;86.48;95752.16;5074848;28;20233;-60
2022/01/19 03:34:30;;;;;;;5.53;2.80;;;;;;;-2.23;86.35;95761.13;5100378;22;20227;-62
2022/01/19 03:36:56;;;;;;;4.77;2.50;;;;;;;-2.36;86.27;95745.59;5093299;28;20182;-63
2022/01/19 03:39:22;;;;;;;4.33;2.53;;;;;;;-2.36;86.28;95745.59;5092951;28;20748;-61
2022/01/19 03:41:48;;;;;;;6.17;3.33;;;;;;;-2.35;86.67;95754.72;5092450;28;20192;-60
2022/01/19 03:44:13;;;;;;;6.50;2.97;;;;;;;-2.38;87.08;95752.25;5092750;28;20592;-61
2022/01/19 03:46:55;;;;;;;5.77;2.70;;;;;;;-2.22;87.22;95747.84;5092711;28;20193;-62
2022/01/19 03:49:24;;;;;;;6.60;2.80;;;;;;;-2.11;86.23;95761.75;5092649;28;20171;-59
2022/01/19 03:51:52;;;;;;;8.50;3.20;;;;;;;-2.23;86.12;95771.09;5092613;28;20203;-60
2022/01/19 03:54:18;;;;;;;5.77;3.00;;;;;;;-2.23;86.19;95761.13;5099755;22;20234;-60
2022/01/19 03:56:51;;;;;;;3.07;2.60;;;;;;;-2.22;86.28;95753.63;5092461;28;20237;-61
2022/01/19 03:59:16;;;;;;;12.33;3.10;;;;;;;-2.20;85.77;95774.34;5092781;28;20208;-61
2022/01/19 04:01:42;;;;;;;5.93;2.40;;;;;;;-2.13;86.05;95780.88;5092373;28;20187;-62
2022/01/19 04:04:32;;;;;;;5.17;2.57;;;;;;;-2.18;85.74;95790.06;5092833;28;20191;-60
2022/01/19 04:09:25;;;;;;;3.50;2.33;;;;;;;-2.18;85.64;95777.63;5092558;28;20233;-64
2022/01/19 04:11:51;;;;;;;3.93;2.13;;;;;;;-2.20;84.98;95779.31;5090917;28;20184;-60
2022/01/19 04:14:25;;;;;;;4.80;2.23;;;;;;;-2.15;84.50;95797.50;5090742;28;20180;-62
2022/01/19 04:16:52;;;;;;;6.87;2.57;;;;;;;-2.07;85.17;95802.34;5091956;28;20157;-61
2022/01/19 04:21:44;;;;;;;6.57;2.93;;;;;;;-2.13;84.94;95802.47;5092460;28;20294;-63
2022/01/19 04:24:09;;;;;;;4.20;2.20;;;;;;;-2.20;84.36;95810.91;5092513;28;20181;-64
2022/01/19 04:26:35;;;;;;;6.20;3.00;;;;;;;-2.19;84.84;95805.88;5073843;28;20611;-62
2022/01/19 04:29:00;;;;;;;4.83;2.90;;;;;;;-2.16;84.48;95810.78;5092366;28;20653;-60
2022/01/19 04:31:26;;;;;;;8.37;2.57;;;;;;;-2.10;84.50;95815.66;5092010;28;20225;-64
2022/01/19 04:33:51;;;;;;;5.40;2.43;;;;;;;-2.21;84.39;95807.56;5092488;28;20282;-62
2022/01/19 04:36:36;;;;;;;6.37;3.17;;;;;;;-2.19;84.31;95815.00;5091698;28;20257;-59
2022/01/19 05:06:02;;;;;;;5.43;2.40;;;;;;;-2.24;84.09;95834.22;5074524;28;20266;-63
2022/01/19 05:13:39;;;;;;;5.97;2.97;;;;;;;-2.23;84.29;95854.09;5092688;28;20224;-65
2022/01/19 05:16:05;;;;;;;5.90;3.13;;;;;;;-2.21;84.06;95854.88;5092131;28;20641;-63
2022/01/19 05:18:31;;;;;;;8.60;2.80;;;;;;;-2.11;84.24;95856.38;5099373;22;20228;-59
2022/01/19 05:20:57;;;;;;;7.00;3.73;;;;;;;-2.29;84.08;95841.75;5091603;28;20630;-61
2022/01/19 05:23:23;;;;;;;5.90;3.37;;;;;;;-2.32;84.16;95831.03;5091959;28;20679;-65
2022/01/19 05:25:48;;;;;;;10.67;2.93;;;;;;;-2.22;84.24;95843.28;5091025;28;20663;-62
2022/01/19 05:28:14;;;;;;;6.57;3.20;;;;;;;-2.26;84.47;95846.66;5091360;28;20252;-64
2022/01/19 05:30:40;;;;;;;11.83;3.10;;;;;;;-2.31;84.87;95847.59;5056745;28;20279;-62
2022/01/19 05:33:06;;;;;;;7.60;3.50;;;;;;;-2.28;84.43;95853.31;5092050;28;20289;-62
2022/01/19 05:35:31;;;;;;;7.50;2.87;;;;;;;-2.20;84.82;95850.72;5091330;28;20287;-62
2022/01/19 05:37:57;;;;;;;4.03;3.20;;;;;;;-2.30;85.32;95850.03;5091893;28;20190;-62
2022/01/19 05:40:23;;;;;;;4.87;3.37;;;;;;;-2.27;84.53;95851.66;5091411;28;20321;-62
2022/01/19 05:42:49;;;;;;;6.43;2.73;;;;;;;-2.36;85.25;95847.66;5073608;28;20191;-66
2022/01/19 05:45:16;;;;;;;6.47;2.70;;;;;;;-2.32;85.56;95859.19;5073434;28;20264;-59
2022/01/19 05:47:42;;;;;;;6.67;2.47;;;;;;;-2.26;85.13;95876.53;5090489;28;20196;-66
2022/01/19 05:50:08;;;;;;;5.80;3.40;;;;;;;-2.22;86.85;95850.75;5073102;28;20210;-66
2022/01/19 05:52:34;;;;;;;6.63;3.23;;;;;;;-2.17;86.68;95853.16;5091633;28;20243;-65
2022/01/19 05:55:00;;;;;;;14.37;3.43;;;;;;;-2.26;87.17;95856.63;5091166;28;20193;-65
2022/01/19 05:57:25;;;;;;;10.27;3.00;;;;;;;-2.28;87.59;95855.03;5091742;28;20223;-60
2022/01/19 05:59:51;;;;;;;11.77;3.13;;;;;;;-2.33;88.17;95844.28;5073137;28;20658;-60
2022/01/19 06:02:16;;;;;;;8.43;3.87;;;;;;;-2.24;87.67;95857.41;5091619;28;20193;-60
2022/01/19 06:04:43;;;;;;;10.13;3.57;;;;;;;-2.24;87.96;95854.13;5092543;28;20200;-63
2022/01/19 06:07:09;;;;;;;7.47;3.80;;;;;;;-2.22;88.53;95859.91;5095279;28;20254;-60
2022/01/19 06:09:37;;;;;;;10.20;3.87;;;;;;;0.12;100.00;95858.31;5093435;28;20209;-60
2022/01/19 06:12:08;;;;;;;11.40;4.10;;;;;;;4.07;100.00;95842.69;5076441;28;20195;-59
2022/01/19 06:14:35;;;;;;;10.37;4.40;;;;;;;1.35;100.00;95980.97;5094815;28;20181;-60
2022/01/19 06:17:02;;;;;;;10.37;4.00;;;;;;;0.31;98.83;95961.16;5076073;28;20227;-60
2022/01/19 06:19:27;;;;;;;9.47;4.20;;;;;;;-0.36;98.30;95961.88;5094393;28;20197;-61
2022/01/19 06:21:53;;;;;;;7.77;3.77;;;;;;;-0.81;100.00;95945.38;5094438;28;20195;-62
2022/01/19 06:24:19;;;;;;;7.97;4.10;;;;;;;-1.24;100.00;95920.44;5094284;28;20181;-62
2022/01/19 06:26:45;;;;;;;7.23;3.90;;;;;;;-1.43;100.00;95909.16;5094528;28;20202;-62
2022/01/19 06:29:11;;;;;;;9.57;3.73;;;;;;;-1.54;100.00;95906.03;5094097;28;20265;-61
2022/01/19 06:31:36;;;;;;;8.13;3.90;;;;;;;-1.62;100.00;95900.38;5094237;28;20229;-64
2022/01/19 06:34:02;;;;;;;7.27;3.87;;;;;;;-1.56;100.00;95901.09;5094261;28;20270;-63
2022/01/19 06:36:28;;;;;;;12.77;4.87;;;;;;;2.11;100.00;95874.22;5094263;28;20211;-66
2022/01/19 06:38:53;;;;;;;8.07;4.60;;;;;;;0.04;100.00;95999.31;5093952;28;20198;-61
2022/01/19 06:41:19;;;;;;;9.77;3.93;;;;;;;-0.53;100.00;95968.94;5094181;28;20211;-61
2022/01/19 06:43:44;;;;;;;11.27;4.17;;;;;;;-0.78;100.00;95968.59;5093992;28;20178;-67
2022/01/19 06:46:10;;;;;;;8.80;3.70;;;;;;;-1.19;100.00;95931.16;5075646;28;20672;-66
2022/01/19 06:48:36;;;;;;;11.40;4.37;;;;;;;-1.36;100.00;95921.50;5093853;28;20178;-60
2022/01/19 06:51:01;;;;;;;8.63;4.60;;;;;;;-1.37;100.00;95921.50;5093833;28;20202;-63
2022/01/19 06:53:27;;;;;;;12.67;4.40;;;;;;;-1.42;100.00;95919.13;5092350;28;20286;-62
2022/01/19 06:55:57;;;;;;;14.70;5.33;;;;;;;-1.51;100.00;95921.75;5093495;28;20675;-63
2022/01/19 06:58:23;;;;;;;11.83;4.30;;;;;;;-1.66;100.00;95908.75;5093634;28;20677;-61
2022/01/19 07:00:49;;;;;;;10.63;4.00;;;;;;;-1.68;100.00;95901.31;5093209;28;20212;-62
2022/01/19 07:03:14;;;;;;;11.23;4.27;;;;;;;-1.60;100.00;95898.69;5093517;28;20189;-62
2022/01/19 07:05:40;;;;;;;10.40;4.90;;;;;;;-1.62;100.00;95910.34;5093372;28;20208;-62
2022/01/19 07:08:06;;;;;;;10.70;4.17;;;;;;;-1.63;100.00;95891.25;5093842;28;20185;-62
2022/01/19 07:10:32;;;;;;;14.10;4.53;;;;;;;-1.61;100.00;95890.38;5093389;28;20248;-61
2022/01/19 07:13:02;;;;;;;11.80;4.87;;;;;;;-1.57;100.00;95882.00;5093772;28;20634;-60
2022/01/19 07:15:28;;;;;;;16.20;5.17;;;;;;;-1.52;100.00;95882.75;5092823;28;20202;-65
2022/01/19 07:17:53;;;;;;;13.63;4.40;;;;;;;-1.49;100.00;95879.34;5093741;28;20251;-62
2022/01/19 07:20:19;;;;;;;5.47;3.73;;;;;;;-1.37;100.00;95882.44;5093108;28;20218;-59
2022/01/19 07:22:45;;;;;;;9.50;4.50;;;;;;;-1.35;100.00;95882.41;5093709;28;20194;-60
2022/01/19 07:25:11;;;;;;;8.20;4.53;;;;;;;-1.55;100.00;95867.81;5101647;22;20234;-65
2022/01/19 07:27:36;;;;;;;9.90;4.10;;;;;;;-1.30;100.00;95883.97;5093206;28;20690;-62
2022/01/19 07:30:04;;;;;;;13.83;4.70;;;;;;;-1.32;100.00;95880.69;5091910;28;20210;-65
2022/01/19 07:32:34;;;;;;;11.03;5.30;;;;;;;-1.20;100.00;95884.63;5074651;28;20249;-63
2022/01/19 07:34:59;;;;;;;8.57;4.70;;;;;;;-1.10;100.00;95891.91;5093325;28;20238;-67
2022/01/19 07:37:25;;;;;;;11.97;5.50;;;;;;;-0.95;100.00;95900.75;5091393;28;20211;-62
2022/01/19 07:39:51;;;;;;;12.90;5.10;;;;;;;-1.04;100.00;95924.19;5093542;28;20305;-61
2022/01/19 07:42:16;;;;;;;6.77;3.50;;;;;;;-1.13;100.00;95908.59;5092879;28;20274;-64
2022/01/19 07:44:42;;;;;;;15.13;5.50;;;;;;;-1.10;100.00;95918.50;5074531;28;20202;-66
2022/01/19 07:47:07;;;;;;;12.70;4.33;;;;;;;-1.06;100.00;95895.13;5092884;28;20174;-66
2022/01/19 07:49:34;;;;;;;7.13;4.00;;;;;;;-1.11;100.00;95910.19;5093015;28;20637;-66
2022/01/19 07:51:59;;;;;;;9.10;4.33;;;;;;;-0.92;100.00;95925.63;5092596;28;20187;-66
2022/01/19 07:54:25;;;;;;;8.67;4.90;;;;;;;-0.87;100.00;95912.19;5092932;28;20185;-61
2022/01/19 07:56:50;;;;;;;11.27;4.83;;;;;;;-0.81;100.00;95920.44;5092545;28;20281;-65
2022/01/19 07:59:17;;;;;;;9.57;5.13;;;;;;;-0.72;100.00;95935.19;5074895;28;20663;-60
2022/01/19 08:01:43;;;;;;;9.93;4.60;;;;;;;-0.67;100.00;95941.75;5092217;28;20206;-64
2022/01/19 08:04:09;;;;;;;12.03;4.77;;;;;;;-0.46;100.00;95931.31;5092306;28;20182;-66
2022/01/19 08:06:35;;;;;;;11.27;4.33;;;;;;;-0.43;100.00;95948.72;5074761;28;20278;-66
2022/01/19 08:09:00;;;;;;;6.10;4.07;;;;;;;-0.42;100.00;95947.84;5092708;28;20194;-61
2022/01/19 08:11:26;;;;;;;10.73;5.47;;;;;;;-0.48;100.00;95933.00;5092756;28;20188;-61
2022/01/19 08:13:52;;;;;;;9.97;4.60;;;;;;;-0.46;100.00;95928.81;5092719;28;20631;-59
2022/01/19 08:16:18;;;;;;;12.73;5.70;;;;;;;-0.27;99.90;95932.56;5074467;28;20695;-68
2022/01/19 08:18:44;;;;;;;10.00;5.70;;;;;;;-0.08;99.99;95941.25;5092363;28;20267;-64
2022/01/19 08:21:09;;;;;;;11.70;4.70;;;;;;;0.05;98.20;95960.97;5099283;22;20235;-62
2022/01/19 08:23:34;;;;;;;9.83;4.57;;;;;;;0.25;97.80;95963.81;5092336;28;20607;-67
2022/01/19 08:26:00;;;;;;;7.17;4.10;;;;;;;0.35;95.56;96000.25;5092557;28;20210;-62
2022/01/19 08:28:25;;;;;;;13.27;4.83;;;;;;;0.54;95.72;95983.97;5073711;28;20204;-63
2022/01/19 08:30:51;;;;;;;9.87;5.20;;;;;;;0.09;95.03;95947.53;5074307;28;20687;-67
2022/01/19 08:33:17;;;;;;;9.43;4.47;;;;;;;0.18;94.92;95977.34;5074058;28;20218;-63
2022/01/19 08:35:42;;;;;;;10.37;4.63;;;;;;;0.12;95.16;95970.81;5092513;28;20581;-62
2022/01/19 08:38:08;;;;;;;11.33;4.03;;;;;;;0.01;95.96;95965.22;5090610;28;20184;-67
2022/01/19 08:40:36;;;;;;;10.77;4.57;;;;;;;-0.11;95.80;95946.34;5073847;28;20219;-65
2022/01/19 08:43:03;;;;;;;11.97;4.67;;;;;;;0.00;95.42;95949.41;5091823;28;20192;-64
2022/01/19 08:45:28;;;;;;;7.07;3.57;;;;;;;-0.03;94.82;95959.47;5074123;28;20583;-64
2022/01/19 08:47:54;;;;;;;11.13;4.30;;;;;;;-0.33;95.75;95942.69;5091967;28;20175;-64
2022/01/19 08:50:19;;;;;;;12.27;4.60;;;;;;;-0.27;95.65;95937.53;5091645;28;20215;-64
2022/01/19 08:52:46;;;;;;;9.87;4.27;;;;;;;0.24;93.83;95978.03;5091632;28;20559;-66
2022/01/19 08:55:12;;;;;;;12.97;4.00;;;;;;;0.59;91.32;96019.66;5091895;28;20652;-65
2022/01/19 08:57:38;;;;;;;9.97;4.33;;;;;;;0.96;90.13;96032.94;5091588;28;20179;-63
2022/01/19 09:00:09;;;;;;;8.87;4.70;;;;;;;1.38;89.06;96031.78;5091792;28;20218;-64
2022/01/19 09:02:35;;;;;;;10.20;4.60;;;;;;;1.56;87.26;96051.34;5073451;28;20241;-64
2022/01/19 09:05:02;;;;;;;9.87;4.03;;;;;;;1.94;84.87;96085.34;5098687;22;20227;-63
2022/01/19 09:07:28;;;;;;;9.77;4.33;;;;;;;1.81;85.62;96056.50;5073224;28;20739;-63
2022/01/19 09:09:53;;;;;;;9.97;4.10;;;;;;;2.09;84.99;96043.97;5091708;28;20240;-64
2022/01/19 09:12:19;;;;;;;8.83;4.00;;;;;;;2.71;85.11;96042.88;5091392;28;20233;-63
2022/01/19 09:14:44;;;;;;;8.10;3.73;;;;;;;2.95;82.48;96087.28;5091670;28;20208;-64
2022/01/19 09:17:10;;;;;;;11.23;4.33;;;;;;;2.86;82.59;96072.53;5091721;28;20263;-65
2022/01/19 09:19:39;;;;;;;10.50;4.17;;;;;;;3.08;82.15;96055.88;5091218;28;20675;-61
2022/01/19 09:22:06;;;;;;;6.83;4.47;;;;;;;3.12;73.51;96102.63;5091553;28;20176;-63
2022/01/19 09:24:34;;;;;;;12.63;4.03;;;;;;;3.08;72.45;96083.50;5091568;28;20188;-61
2022/01/19 09:27:00;;;;;;;10.83;4.90;;;;;;;3.39;72.15;96088.34;5091666;28;20255;-63
2022/01/19 09:29:25;;;;;;;9.00;4.00;;;;;;;3.18;69.06;96094.91;5073317;28;20222;-63
2022/01/19 09:31:52;;;;;;;17.77;4.60;;;;;;;3.23;67.00;96092.25;5091549;28;20645;-63
2022/01/19 09:34:20;;;;;;;6.80;4.00;;;;;;;2.86;66.08;96090.09;5091396;28;20184;-64
2022/01/19 09:36:46;;;;;;;9.23;4.63;;;;;;;2.94;65.79;96079.78;5090085;28;20645;-67
2022/01/19 09:39:25;;;;;;;8.67;4.30;;;;;;;2.89;67.56;96038.97;5093746;28;20224;-66
2022/01/19 09:41:53;;;;;;;9.90;4.47;;;;;;;3.61;67.60;96035.63;5095150;28;20176;-65
2022/01/19 09:44:21;;;;;;;14.60;4.47;;;;;;;4.17;63.31;96097.28;5095115;28;20674;-63
2022/01/19 09:46:47;;;;;;;5.87;3.47;;;;;;;4.38;63.86;96068.81;5095299;28;20202;-61
2022/01/19 09:49:15;;;;;;;15.70;6.73;;;;;;;3.64;62.59;96094.16;5060394;28;20188;-62
2022/01/19 09:51:42;;;;;;;7.50;3.93;;;;;;;3.10;63.62;96056.66;5095330;28;20259;-60
2022/01/19 09:54:07;;;;;;;10.40;4.07;;;;;;;2.98;64.22;96026.91;5076878;28;20195;-66
2022/01/19 09:56:33;;;;;;;9.47;3.70;;;;;;;3.70;64.04;96042.81;5094911;28;20257;-61
2022/01/19 09:58:59;;;;;;;6.47;4.23;;;;;;;4.04;63.13;96058.38;5076864;28;20199;-62
2022/01/19 10:01:25;;;;;;;6.50;3.20;;;;;;;4.32;61.25;96096.72;5076660;28;20199;-67
2022/01/19 10:03:52;;;;;;;14.73;4.10;;;;;;;4.53;60.22;96116.03;5094898;28;20199;-61
2022/01/19 10:06:20;;;;;;;7.33;4.47;;;;;;;4.97;61.07;96069.78;5093416;28;20215;-65
2022/01/19 10:08:54;;;;;;;12.10;3.43;;;;;;;5.31;59.06;96129.75;5094737;28;20271;-67
2022/01/19 10:17:01;;;;;;;6.87;3.40;;;;;;;4.67;58.37;96076.03;5094760;28;20175;-61
2022/01/19 10:19:28;;;;;;;10.07;3.70;;;;;;;4.23;57.69;96076.91;5092937;28;20720;-61
2022/01/19 10:22:00;;;;;;;13.97;3.93;;;;;;;4.44;58.20;96072.78;5093363;28;20661;-64
2022/01/19 10:24:56;;;;;;;8.80;3.87;;;;;;;4.67;56.46;96101.22;5094558;28;20192;-61
2022/01/19 10:27:35;;;;;;;11.37;4.10;;;;;;;4.79;57.20;96088.16;5094540;28;20631;-61
2022/01/19 10:30:04;;;;;;;7.53;3.47;;;;;;;5.31;56.23;96109.59;5094852;28;20653;-61
2022/01/19 10:32:36;;;;;;;4.13;2.73;;;;;;;5.53;55.62;96112.88;5094351;28;20187;-63
2022/01/19 10:35:24;;;;;;;5.67;3.50;;;;;;;5.52;53.34;96143.19;5094346;28;20285;-66
2022/01/19 10:38:16;;;;;;;6.83;3.10;;;;;;;5.79;53.65;96116.81;5094232;28;20179;-64
2022/01/19 10:41:04;;;;;;;8.00;3.93;;;;;;;5.67;53.94;96107.25;5094439;28;20283;-67
2022/01/19 10:43:36;;;;;;;8.40;4.50;;;;;;;5.29;54.93;96076.06;5094251;28;20172;-67
2022/01/19 10:46:23;;;;;;;8.17;3.97;;;;;;;5.67;55.07;96056.78;5076294;28;20822;-61
2022/01/19 10:48:48;;;;;;;9.07;4.03;;;;;;;6.03;54.32;96062.78;5075863;28;20277;-61
2022/01/19 10:51:20;;;;;;;10.03;4.13;;;;;;;6.54;53.40;96068.00;5093127;28;20291;-63
2022/01/19 10:54:05;;;;;;;9.63;4.10;;;;;;;6.74;52.40;96083.06;5094053;28;20197;-60
2022/01/19 10:56:32;;;;;;;10.53;4.17;;;;;;;6.13;51.50;96058.13;5093938;28;20213;-65
2022/01/19 10:59:08;;;;;;;10.23;4.13;;;;;;;6.20;52.40;96037.59;5093513;28;20206;-66
2022/01/19 11:01:45;;;;;;;10.33;4.03;;;;;;;6.22;52.26;96040.84;5093987;28;20221;-62
2022/01/19 11:04:19;;;;;;;8.37;4.33;;;;;;;6.75;52.45;96011.41;5093564;28;20188;-65
2022/01/19 11:06:47;;;;;;;9.33;4.03;;;;;;;6.03;52.05;96019.88;5075662;28;20273;-61
2022/01/19 11:09:14;;;;;;;9.97;4.43;;;;;;;6.03;52.36;96008.94;5093404;28;20206;-61
2022/01/19 11:11:44;;;;;;;7.37;4.20;;;;;;;6.14;51.71;96021.91;5058461;28;20233;-60
2022/01/19 11:14:15;;;;;;;6.60;4.37;;;;;;;6.39;51.96;96007.25;5093699;28;20183;-61
2022/01/19 11:16:42;;;;;;;11.80;3.60;;;;;;;6.72;51.03;96023.38;5075080;28;20597;-59
2022/01/19 11:19:08;;;;;;;11.37;4.27;;;;;;;6.28;51.40;96006.97;5092947;28;20283;-60
2022/01/19 11:21:46;;;;;;;8.50;3.93;;;;;;;6.77;51.51;96019.72;5074845;28;20203;-62
2022/01/19 11:24:21;;;;;;;10.03;4.03;;;;;;;6.10;51.82;95978.31;5092750;28;20222;-62
2022/01/19 11:26:47;;;;;;;7.40;4.10;;;;;;;6.07;52.65;95950.69;5075673;28;20170;-61
2022/01/19 11:29:15;;;;;;;11.07;4.53;;;;;;;6.21;51.61;95972.75;5093085;28;20195;-62
2022/01/19 11:31:40;;;;;;;7.03;3.50;;;;;;;5.41;52.62;95941.91;5075110;28;20198;-60
2022/01/19 11:34:06;;;;;;;7.90;4.00;;;;;;;5.83;53.99;95913.94;5092941;28;20196;-61
2022/01/19 11:36:39;;;;;;;7.33;4.60;;;;;;;5.90;52.49;95950.63;5092963;28;20199;-66
2022/01/19 11:39:23;;;;;;;8.63;4.73;;;;;;;6.04;53.00;95943.25;5092753;28;20211;-66
2022/01/19 11:41:59;;;;;;;11.63;5.30;;;;;;;5.58;53.28;95933.59;5074750;28;20263;-60
2022/01/19 11:44:30;;;;;;;7.07;3.90;;;;;;;5.69;53.01;95933.94;5074648;28;20265;-66
2022/01/19 11:47:13;;;;;;;7.27;4.23;;;;;;;5.71;54.06;95906.94;5092745;28;20207;-61
2022/01/19 11:50:04;;;;;;;8.30;5.03;;;;;;;6.07;53.35;95927.16;5092866;28;20294;-66
2022/01/19 11:52:35;;;;;;;12.73;5.20;;;;;;;6.28;53.29;95924.44;5093030;28;20274;-63
2022/01/19 11:55:15;;;;;;;8.93;4.00;;;;;;;6.68;51.81;95946.91;5092877;28;20641;-62
2022/01/19 11:57:43;;;;;;;9.03;5.10;;;;;;;6.88;51.18;95977.94;5074273;28;20186;-66
2022/01/19 12:00:18;;;;;;;10.07;5.17;;;;;;;6.61;51.59;95945.56;5074231;28;20228;-65
2022/01/19 12:02:47;;;;;;;13.50;4.30;;;;;;;6.91;49.97;95975.28;5092882;28;20171;-62
2022/01/19 12:05:14;;;;;;;8.43;4.40;;;;;;;7.23;50.34;95962.66;5074203;28;20221;-63
2022/01/19 12:07:40;;;;;;;12.97;4.70;;;;;;;7.35;48.53;96007.56;5074047;28;20184;-60
2022/01/19 12:10:20;;;;;;;10.77;4.63;;;;;;;6.47;49.44;95974.88;5092370;28;20273;-62
2022/01/19 12:16:07;;;;;;;4.77;4.23;;;;;;;6.63;50.89;95915.97;5092650;28;20223;-60
2022/01/19 12:18:48;;;;;;;9.70;4.50;;;;;;;7.10;49.18;95965.88;5092511;28;20269;-61
2022/01/19 12:21:35;;;;;;;10.07;4.70;;;;;;;7.54;49.03;95950.06;5092713;28;20685;-60
2022/01/19 12:24:29;;;;;;;11.67;5.10;;;;;;;7.59;48.42;95972.63;5092225;28;20184;-60
2022/01/19 12:27:05;;;;;;;10.93;5.30;;;;;;;7.58;48.09;95954.06;5092595;28;20175;-61
2022/01/19 12:29:37;;;;;;;8.63;4.83;;;;;;;7.51;48.78;95929.19;5092658;28;20190;-61
2022/01/19 12:32:10;;;;;;;7.50;4.50;;;;;;;7.71;48.74;95931.47;5092503;28;20219;-61
2022/01/19 12:34:46;;;;;;;13.63;4.60;;;;;;;7.96;48.20;95939.38;5092197;28;20224;-67
2022/01/19 12:37:38;;;;;;;12.40;5.20;;;;;;;7.68;47.35;95954.41;5092152;28;20558;-60
2022/01/19 12:40:25;;;;;;;7.87;4.07;;;;;;;7.55;49.05;95918.78;5080753;28;20227;-60
2022/01/19 12:42:56;;;;;;;10.57;5.20;;;;;;;7.48;48.73;95911.63;5092114;28;20168;-62
2022/01/19 12:45:28;;;;;;;14.73;4.63;;;;;;;7.47;48.73;95907.47;5102732;22;20227;-61
2022/01/19 12:48:07;;;;;;;13.33;5.90;;;;;;;7.65;48.36;95903.97;5092053;28;20169;-60
2022/01/19 12:50:32;;;;;;;10.27;4.97;;;;;;;7.28;48.85;95876.44;5091797;28;20682;-60
2022/01/19 12:53:01;;;;;;;12.63;4.67;;;;;;;6.84;48.95;95873.66;5091845;28;20172;-61
2022/01/19 12:55:34;;;;;;;9.27;4.93;;;;;;;6.43;49.49;95847.94;5092157;28;20215;-67
2022/01/19 12:58:07;;;;;;;9.27;4.37;;;;;;;7.06;49.17;95856.50;5090691;28;20187;-60
2022/01/19 13:00:34;;;;;;;14.73;5.27;;;;;;;6.73;50.15;95821.13;5092243;28;20223;-60
2022/01/19 13:03:12;;;;;;;11.70;5.17;;;;;;;6.95;50.35;95809.94;5091824;28;20307;-60
2022/01/19 13:05:45;;;;;;;13.00;5.37;;;;;;;6.84;49.49;95840.00;5092104;28;20206;-60
2022/01/19 13:08:11;;;;;;;13.03;5.83;;;;;;;6.86;49.94;95833.16;5091909;28;20169;-61